createdAt,value
2019-03-03T00:01:26.513Z,92.30
2019-03-03T00:03:54.111Z,92.40
2019-03-03T00:06:21.353Z,92.50
2019-03-03T00:08:48.707Z,92.20
2019-03-03T00:11:16.193Z,92.20
2019-03-03T00:13:44.080Z,92.30
2019-03-03T00:16:11.887Z,92.10
2019-03-03T00:18:39.250Z,92.10
2019-03-03T00:21:08.557Z,92.10
2019-03-03T00:23:37.858Z,92.20
2019-03-03T00:26:05.126Z,92.20
2019-03-03T00:28:32.565Z,92.00
2019-03-03T00:30:59.821Z,92.10
2019-03-03T00:33:27.280Z,92.00
2019-03-03T00:35:54.543Z,91.70
2019-03-03T00:38:44.241Z,91.90
2019-03-03T00:41:29.692Z,91.70
2019-03-03T00:44:19.255Z,91.50
2019-03-03T00:47:19.128Z,91.50
2019-03-03T00:50:04.903Z,91.50
2019-03-03T00:52:51.849Z,91.40
2019-03-03T00:55:42.074Z,91.40
2019-03-03T00:58:38.168Z,91.20
2019-03-03T01:01:30.822Z,91.10
2019-03-03T01:04:04.100Z,90.80
2019-03-03T01:06:49.548Z,90.60
2019-03-03T01:09:42.497Z,90.50
2019-03-03T01:12:18.570Z,90.50
2019-03-03T01:14:53.249Z,90.40
2019-03-03T01:17:32.334Z,90.40
2019-03-03T01:20:14.334Z,90.50
2019-03-03T01:23:13.730Z,90.30
2019-03-03T01:25:41.095Z,90.20
2019-03-03T01:28:08.410Z,90.10
2019-03-03T01:30:36.021Z,90.00
2019-03-03T01:33:03.483Z,89.90
2019-03-03T01:35:31.200Z,89.80
2019-03-03T01:37:58.774Z,89.90
2019-03-03T01:40:26.101Z,89.90
2019-03-03T01:42:53.362Z,89.90
2019-03-03T01:45:20.625Z,89.80
2019-03-03T01:47:48.421Z,89.60
2019-03-03T01:50:16.095Z,89.90
2019-03-03T01:52:43.499Z,89.80
2019-03-03T01:55:11.192Z,89.80
2019-03-03T01:57:38.584Z,89.60
2019-03-03T02:00:15.600Z,89.50
2019-03-03T02:02:43.235Z,89.30
2019-03-03T02:05:10.505Z,89.40
2019-03-03T02:07:38.015Z,89.20
2019-03-03T02:10:06.146Z,89.20
2019-03-03T02:12:33.531Z,89.10
2019-03-03T02:15:00.785Z,89.00
2019-03-03T02:17:28.062Z,89.00
2019-03-03T02:19:55.545Z,88.90
2019-03-03T02:22:23.246Z,88.60
2019-03-03T02:24:50.552Z,88.80
2019-03-03T02:27:17.798Z,88.60
2019-03-03T02:29:46.348Z,88.60
2019-03-03T02:32:13.682Z,88.50
2019-03-03T02:34:42.811Z,88.40
2019-03-03T02:37:10.241Z,88.40
2019-03-03T02:39:37.711Z,88.30
2019-03-03T02:42:05.054Z,88.40
2019-03-03T02:44:32.456Z,88.50
2019-03-03T02:46:59.868Z,88.50
2019-03-03T02:49:27.115Z,88.50
2019-03-03T02:51:54.906Z,88.40
2019-03-03T02:54:22.150Z,88.50
2019-03-03T02:56:49.457Z,88.60
2019-03-03T02:59:16.879Z,88.40
2019-03-03T03:02:09.727Z,88.30
2019-03-03T03:04:37.162Z,88.40
2019-03-03T03:07:36.078Z,88.50
2019-03-03T03:10:10.617Z,88.40
2019-03-03T03:12:53.309Z,88.60
2019-03-03T03:15:40.626Z,88.50
2019-03-03T03:18:30.298Z,88.40
2019-03-03T03:21:02.671Z,88.40
2019-03-03T03:23:52.299Z,88.50
2019-03-03T03:26:26.874Z,88.50
2019-03-03T03:29:07.126Z,88.60
2019-03-03T03:31:44.406Z,88.60
2019-03-03T03:34:37.084Z,88.60
2019-03-03T03:37:12.588Z,88.70
2019-03-03T03:39:56.987Z,88.70
2019-03-03T03:42:43.883Z,88.80
2019-03-03T03:45:33.713Z,89.10
2019-03-03T03:48:23.505Z,89.20
2019-03-03T03:51:13.545Z,89.20
2019-03-03T03:53:48.630Z,89.40
2019-03-03T03:56:41.033Z,89.50
2019-03-03T03:59:26.425Z,89.70
2019-03-03T04:02:21.148Z,89.70
2019-03-03T04:05:13.637Z,89.70
2019-03-03T04:08:03.442Z,89.80
2019-03-03T04:10:40.297Z,90.00
2019-03-03T04:13:19.805Z,90.10
2019-03-03T04:16:05.342Z,90.20
2019-03-03T04:18:38.471Z,90.30
2019-03-03T04:21:25.363Z,90.30
2019-03-03T04:24:02.818Z,90.30
2019-03-03T04:26:40.460Z,90.40
2019-03-03T04:29:33.322Z,90.30
2019-03-03T04:32:06.007Z,90.50
2019-03-03T04:34:51.803Z,90.60
2019-03-03T04:37:38.819Z,90.40
2019-03-03T04:40:11.382Z,90.30
2019-03-03T04:42:56.860Z,90.30
2019-03-03T04:45:30.217Z,90.00
2019-03-03T04:48:19.797Z,89.80
2019-03-03T04:51:01.638Z,89.90
2019-03-03T04:53:42.286Z,89.90
2019-03-03T04:56:29.160Z,89.80
2019-03-03T04:59:03.844Z,89.80
2019-03-03T05:01:53.404Z,89.70
2019-03-03T05:04:39.054Z,89.80
2019-03-03T05:07:17.186Z,89.60
2019-03-03T05:10:07.106Z,89.70
2019-03-03T05:12:52.227Z,89.70
2019-03-03T05:15:57.794Z,89.60
2019-03-03T05:18:50.328Z,89.60
2019-03-03T05:21:17.600Z,89.60
2019-03-03T05:23:44.873Z,89.50
2019-03-03T05:26:12.209Z,89.60
2019-03-03T05:28:39.578Z,89.40
2019-03-03T05:31:06.985Z,89.40
2019-03-03T05:33:34.305Z,89.40
2019-03-03T05:36:01.784Z,89.40
2019-03-03T05:38:29.127Z,89.40
2019-03-03T05:40:56.735Z,89.80
2019-03-03T05:43:23.928Z,89.80
2019-03-03T05:45:51.612Z,89.90
2019-03-03T05:48:18.841Z,89.90
2019-03-03T05:50:46.093Z,89.90
2019-03-03T05:53:13.498Z,90.00
2019-03-03T05:55:40.854Z,90.10
2019-03-03T05:58:08.275Z,90.00
2019-03-03T06:00:35.535Z,90.20
2019-03-03T06:03:02.914Z,90.10
2019-03-03T06:05:30.322Z,90.20
2019-03-03T06:07:57.686Z,90.20
2019-03-03T06:10:24.979Z,90.20
2019-03-03T06:12:52.378Z,90.30
2019-03-03T06:15:19.888Z,90.40
2019-03-03T06:17:47.168Z,90.50
2019-03-03T06:20:14.591Z,90.50
2019-03-03T06:22:42.023Z,90.40
2019-03-03T06:25:09.588Z,90.30
2019-03-03T06:27:37.199Z,90.20
2019-03-03T06:30:05.604Z,90.30
2019-03-03T06:32:32.989Z,90.20
2019-03-03T06:35:00.419Z,90.40
2019-03-03T06:37:27.828Z,90.20
2019-03-03T06:39:55.121Z,90.10
2019-03-03T06:42:22.479Z,89.90
2019-03-03T06:44:49.604Z,89.80
2019-03-03T06:47:16.916Z,89.90
2019-03-03T06:49:44.517Z,89.90
2019-03-03T06:52:11.760Z,89.70
2019-03-03T06:54:39.075Z,89.60
2019-03-03T06:57:06.380Z,89.40
2019-03-03T06:59:33.738Z,89.10
2019-03-03T07:02:01.410Z,89.00
2019-03-03T07:04:28.736Z,89.10
2019-03-03T07:06:56.308Z,89.00
2019-03-03T07:09:23.691Z,89.10
2019-03-03T07:11:50.925Z,88.50
2019-03-03T07:14:18.136Z,89.00
2019-03-03T07:16:45.398Z,88.10
2019-03-03T07:19:12.770Z,88.30
2019-03-03T07:21:40.132Z,88.10
2019-03-03T07:24:07.250Z,88.00
2019-03-03T07:26:34.434Z,88.00
2019-03-03T07:29:02.087Z,87.90
2019-03-03T07:31:29.489Z,87.80
2019-03-03T07:33:59.425Z,87.80
2019-03-03T07:36:26.664Z,87.60
2019-03-03T07:38:53.987Z,87.30
2019-03-03T07:41:21.221Z,87.30
2019-03-03T07:43:48.507Z,87.00
2019-03-03T07:46:15.884Z,86.90
2019-03-03T07:48:43.111Z,86.90
2019-03-03T07:51:10.389Z,86.70
2019-03-03T07:53:37.794Z,86.40
2019-03-03T07:56:05.010Z,86.30
2019-03-03T07:58:33.378Z,86.60
2019-03-03T08:01:01.009Z,86.40
2019-03-03T08:03:28.328Z,86.20
2019-03-03T08:05:56.066Z,86.30
2019-03-03T08:08:23.591Z,86.40
2019-03-03T08:10:50.891Z,86.40
2019-03-03T08:13:19.369Z,86.60
2019-03-03T08:15:46.833Z,86.60
2019-03-03T08:18:14.566Z,86.40
2019-03-03T08:20:41.806Z,86.40
2019-03-03T08:23:09.393Z,86.40
2019-03-03T08:25:36.987Z,86.00
2019-03-03T08:28:04.371Z,86.00
2019-03-03T08:30:31.604Z,85.90
2019-03-03T08:32:58.886Z,85.60
2019-03-03T08:35:26.579Z,85.60
2019-03-03T08:37:53.874Z,85.80
2019-03-03T08:40:21.104Z,85.70
2019-03-03T08:42:53.070Z,85.60
2019-03-03T08:45:45.948Z,85.50
2019-03-03T08:48:17.157Z,85.40
2019-03-03T08:50:52.181Z,85.40
2019-03-03T08:53:27.001Z,85.50
2019-03-03T08:56:29.069Z,85.60
2019-03-03T08:59:05.768Z,85.60
2019-03-03T09:01:58.825Z,85.40
2019-03-03T09:04:57.703Z,85.40
2019-03-03T09:07:40.695Z,85.20
2019-03-03T09:10:36.736Z,84.70
2019-03-03T09:13:24.148Z,84.60
2019-03-03T09:16:20.406Z,84.10
2019-03-03T09:18:55.932Z,83.70
2019-03-03T09:21:45.626Z,83.60
2019-03-03T09:24:47.599Z,83.50
2019-03-03T09:27:23.802Z,82.80
2019-03-03T09:30:10.709Z,82.50
2019-03-03T09:33:00.671Z,82.50
2019-03-03T09:35:47.682Z,82.40
2019-03-03T09:38:37.525Z,82.30
2019-03-03T09:41:14.453Z,82.40
2019-03-03T09:44:19.574Z,82.20
2019-03-03T09:47:15.414Z,82.30
2019-03-03T09:49:50.019Z,82.30
2019-03-03T09:52:52.141Z,82.10
2019-03-03T09:55:40.544Z,81.80
2019-03-03T09:58:16.496Z,81.60
2019-03-03T10:01:06.178Z,81.30
2019-03-03T10:03:43.778Z,81.30
2019-03-03T10:06:34.392Z,81.10
2019-03-03T10:09:33.152Z,81.10
2019-03-03T10:12:12.266Z,81.40
2019-03-03T10:15:09.361Z,81.30
2019-03-03T10:18:04.843Z,81.10
2019-03-03T10:20:46.009Z,81.00
2019-03-03T10:23:41.724Z,81.30
2019-03-03T10:26:26.085Z,81.10
2019-03-03T10:29:16.157Z,81.10
2019-03-03T10:32:18.244Z,81.00
2019-03-03T10:35:00.687Z,80.70
2019-03-03T10:38:05.731Z,81.30
2019-03-03T10:40:42.551Z,80.70
2019-03-03T10:43:23.328Z,81.20
2019-03-03T10:46:28.317Z,81.10
2019-03-03T10:49:24.132Z,80.90
2019-03-03T10:52:01.776Z,81.00
2019-03-03T10:54:48.878Z,80.80
2019-03-03T10:57:38.886Z,81.00
2019-03-03T11:00:26.610Z,80.60
2019-03-03T11:03:09.268Z,80.50
2019-03-03T11:06:11.454Z,80.50
2019-03-03T11:09:01.678Z,80.70
2019-03-03T11:11:55.084Z,80.90
2019-03-03T11:14:28.701Z,80.60
2019-03-03T11:17:04.840Z,80.50
2019-03-03T11:19:51.768Z,80.70
2019-03-03T11:22:37.546Z,80.70
2019-03-03T11:25:27.525Z,80.80
2019-03-03T11:27:59.680Z,80.30
2019-03-03T11:30:49.391Z,80.10
2019-03-03T11:33:40.229Z,80.60
2019-03-03T11:36:45.351Z,79.80
2019-03-03T11:39:35.458Z,79.70
2019-03-03T11:42:28.442Z,80.30
2019-03-03T11:45:02.443Z,80.20
2019-03-03T11:48:05.931Z,79.90
2019-03-03T11:50:53.047Z,80.00
2019-03-03T11:53:38.542Z,80.20
2019-03-03T11:56:31.500Z,80.40
2019-03-03T11:59:30.636Z,80.00
2019-03-03T12:02:20.981Z,79.90
2019-03-03T12:05:13.599Z,79.90
2019-03-03T12:08:00.724Z,79.60
2019-03-03T12:10:59.679Z,79.70
2019-03-03T12:13:52.637Z,80.00
2019-03-03T12:16:58.853Z,80.20
2019-03-03T12:19:37.412Z,79.90
2019-03-03T12:22:31.077Z,80.00
2019-03-03T12:25:08.157Z,79.70
2019-03-03T12:27:55.034Z,79.40
2019-03-03T12:30:31.323Z,79.40
2019-03-03T12:33:24.288Z,79.70
2019-03-03T12:36:09.886Z,79.20
2019-03-03T12:38:59.286Z,79.70
2019-03-03T12:41:44.049Z,79.60
2019-03-03T12:44:20.379Z,79.20
2019-03-03T12:47:07.310Z,79.60
2019-03-03T12:50:06.238Z,79.30
2019-03-03T12:52:53.124Z,78.50
2019-03-03T12:55:37.871Z,78.50
2019-03-03T12:58:23.932Z,78.80
2019-03-03T13:01:18.000Z,78.60
2019-03-03T13:03:55.236Z,78.40
2019-03-03T13:06:40.602Z,78.60
2019-03-03T13:09:32.535Z,78.40
2019-03-03T13:12:09.174Z,78.80
2019-03-03T13:14:52.354Z,79.10
2019-03-03T13:17:48.027Z,79.00
2019-03-03T13:20:20.005Z,79.10
2019-03-03T13:22:56.132Z,79.40
2019-03-03T13:25:41.885Z,79.30
2019-03-03T13:28:32.017Z,79.30
2019-03-03T13:31:20.954Z,79.50
2019-03-03T13:34:09.757Z,78.90
2019-03-03T13:37:08.800Z,79.00
2019-03-03T13:40:00.019Z,78.60
2019-03-03T13:42:36.212Z,78.50
2019-03-03T13:45:05.074Z,78.50
2019-03-03T13:47:32.531Z,78.20
2019-03-03T13:49:59.798Z,77.70
2019-03-03T13:52:27.705Z,78.00
2019-03-03T13:54:55.404Z,78.50
2019-03-03T13:57:22.784Z,78.00
2019-03-03T13:59:50.134Z,78.00
2019-03-03T14:02:17.774Z,78.50
2019-03-03T14:04:45.017Z,78.50
2019-03-03T14:07:12.238Z,78.20
2019-03-03T14:09:39.595Z,77.70
2019-03-03T14:12:06.773Z,77.50
2019-03-03T14:14:33.966Z,77.40
2019-03-03T14:17:01.354Z,77.10
2019-03-03T14:19:28.629Z,77.50
2019-03-03T14:21:55.769Z,77.60
2019-03-03T14:24:23.166Z,78.10
2019-03-03T14:26:50.452Z,76.80
2019-03-03T14:29:17.621Z,75.90
2019-03-03T14:31:44.972Z,75.80
2019-03-03T14:34:12.381Z,75.20
2019-03-03T14:36:39.725Z,75.10
2019-03-03T14:39:07.479Z,75.50
2019-03-03T14:41:36.097Z,75.50
2019-03-03T14:44:03.424Z,75.30
2019-03-03T14:46:30.826Z,75.10
2019-03-03T14:48:58.181Z,75.20
2019-03-03T14:51:28.492Z,75.20
2019-03-03T14:53:55.928Z,75.30
2019-03-03T14:56:23.323Z,75.50
2019-03-03T14:58:50.750Z,75.00
2019-03-03T15:01:18.119Z,75.20
2019-03-03T15:03:45.693Z,75.10
2019-03-03T15:06:23.980Z,74.90
2019-03-03T15:08:43.229Z,74.30
2019-03-03T15:11:10.689Z,74.80
2019-03-03T15:13:38.405Z,75.10
2019-03-03T15:16:05.596Z,75.20
2019-03-03T15:18:33.429Z,75.10
2019-03-03T15:21:00.757Z,75.10
2019-03-03T15:23:28.107Z,74.80
2019-03-03T15:25:55.603Z,74.60
2019-03-03T15:28:22.984Z,74.60
2019-03-03T15:30:50.715Z,74.80
2019-03-03T15:33:18.149Z,74.60
2019-03-03T15:35:45.388Z,74.80
2019-03-03T15:38:12.633Z,74.70
2019-03-03T15:40:39.953Z,74.80
2019-03-03T15:43:07.323Z,75.20
2019-03-03T15:45:34.709Z,75.30
2019-03-03T15:48:02.080Z,75.40
2019-03-03T15:50:29.687Z,75.10
2019-03-03T15:52:57.719Z,75.20
2019-03-03T15:55:26.305Z,75.30
2019-03-03T15:57:53.953Z,75.40
2019-03-03T16:00:23.703Z,75.40
2019-03-03T16:02:51.146Z,75.50
2019-03-03T16:05:19.288Z,75.70
2019-03-03T16:07:46.907Z,76.10
2019-03-03T16:10:14.324Z,75.80
2019-03-03T16:12:41.634Z,75.90
2019-03-03T16:15:10.439Z,75.90
2019-03-03T16:17:37.757Z,76.10
2019-03-03T16:20:06.270Z,75.90
2019-03-03T16:22:34.075Z,75.80
2019-03-03T16:25:01.340Z,75.40
2019-03-03T16:27:28.694Z,75.30
2019-03-03T16:29:55.926Z,75.20
2019-03-03T16:32:23.302Z,74.60
2019-03-03T16:34:50.770Z,74.80
2019-03-03T16:37:18.164Z,74.90
2019-03-03T16:39:45.841Z,75.20
2019-03-03T16:42:13.204Z,75.60
2019-03-03T16:44:40.441Z,75.70
2019-03-03T16:47:09.842Z,76.00
2019-03-03T16:49:38.370Z,76.20
2019-03-03T16:52:06.111Z,76.70
2019-03-03T16:54:33.370Z,76.60
2019-03-03T16:57:00.717Z,76.90
2019-03-03T16:59:27.928Z,76.70
2019-03-03T17:01:56.230Z,76.30
2019-03-03T17:04:23.554Z,76.30
2019-03-03T17:06:50.928Z,76.70
2019-03-03T17:09:18.302Z,76.70
2019-03-03T17:11:45.705Z,76.90
2019-03-03T17:14:13.328Z,76.70
2019-03-03T17:16:40.588Z,77.10
2019-03-03T17:19:08.118Z,77.40
2019-03-03T17:21:35.490Z,77.50
2019-03-03T17:24:02.779Z,77.60
2019-03-03T17:26:30.060Z,77.50
2019-03-03T17:28:57.438Z,77.50
2019-03-03T17:31:24.825Z,77.60
2019-03-03T17:33:52.423Z,77.50
2019-03-03T17:36:19.885Z,77.60
2019-03-03T17:38:47.261Z,77.70
2019-03-03T17:41:14.707Z,77.80
2019-03-03T17:43:42.075Z,77.70
2019-03-03T17:46:09.314Z,77.80
2019-03-03T17:48:36.548Z,77.90
2019-03-03T17:51:03.949Z,78.10
2019-03-03T17:53:31.320Z,78.20
2019-03-03T17:55:58.869Z,78.10
2019-03-03T17:58:26.121Z,78.10
2019-03-03T18:00:53.389Z,78.20
2019-03-03T18:03:20.946Z,78.10
2019-03-03T18:05:48.539Z,78.40
2019-03-03T18:08:15.912Z,78.20
2019-03-03T18:10:43.244Z,78.20
2019-03-03T18:13:10.482Z,78.40
2019-03-03T18:15:37.796Z,78.50
2019-03-03T18:18:05.140Z,78.20
2019-03-03T18:20:32.530Z,78.50
2019-03-03T18:22:59.847Z,78.60
2019-03-03T18:25:27.218Z,78.60
2019-03-03T18:27:54.565Z,78.60
2019-03-03T18:30:22.047Z,78.60
2019-03-03T18:32:49.687Z,78.60
2019-03-03T18:35:17.109Z,78.70
2019-03-03T18:37:44.866Z,78.60
2019-03-03T18:40:14.182Z,78.70
2019-03-03T18:42:42.631Z,78.80
2019-03-03T18:45:11.345Z,79.00
2019-03-03T18:47:39.406Z,79.00
2019-03-03T18:50:09.230Z,78.90
2019-03-03T18:52:36.528Z,78.90
2019-03-03T18:55:05.350Z,79.50
2019-03-03T18:57:32.982Z,79.60
2019-03-03T19:00:00.403Z,79.10
2019-03-03T19:02:27.804Z,79.00
2019-03-03T19:04:54.885Z,79.20
2019-03-03T19:07:22.541Z,79.40
2019-03-03T19:09:50.257Z,79.40
2019-03-03T19:12:17.478Z,79.30
2019-03-03T19:14:45.230Z,79.60
2019-03-03T19:17:12.553Z,79.40
2019-03-03T19:19:40.153Z,79.60
2019-03-03T19:22:07.627Z,79.70
2019-03-03T19:24:35.089Z,79.60
2019-03-03T19:27:02.458Z,79.60
2019-03-03T19:29:30.054Z,79.60
2019-03-03T19:31:57.157Z,79.90
2019-03-03T19:34:24.649Z,79.90
2019-03-03T19:36:52.188Z,80.00
2019-03-03T19:39:19.586Z,80.00
2019-03-03T19:41:47.285Z,80.10
2019-03-03T19:44:14.652Z,80.20
2019-03-03T19:46:42.254Z,80.20
2019-03-03T19:49:09.606Z,80.10
2019-03-03T19:51:36.763Z,80.30
2019-03-03T19:54:04.332Z,80.00
2019-03-03T19:56:32.838Z,80.00
2019-03-03T19:59:00.328Z,79.40
2019-03-03T20:01:27.652Z,80.00
2019-03-03T20:03:55.180Z,79.80
2019-03-03T20:06:23.593Z,79.80
2019-03-03T20:08:50.939Z,79.80
2019-03-03T20:11:18.413Z,79.70
2019-03-03T20:13:45.622Z,79.50
2019-03-03T20:16:13.111Z,80.00
2019-03-03T20:18:41.437Z,79.70
2019-03-03T20:21:09.131Z,79.90
2019-03-03T20:23:36.456Z,80.10
2019-03-03T20:26:04.254Z,80.10
2019-03-03T20:28:32.708Z,80.20
2019-03-03T20:31:00.293Z,80.00
2019-03-03T20:33:28.523Z,80.20
2019-03-03T20:35:56.114Z,80.30
2019-03-03T20:38:24.664Z,80.10
2019-03-03T20:40:52.124Z,80.40
2019-03-03T20:43:19.373Z,80.40
2019-03-03T20:45:46.731Z,80.50
2019-03-03T20:48:14.026Z,80.50
2019-03-03T20:50:41.504Z,80.60
2019-03-03T20:53:09.260Z,80.70
2019-03-03T20:55:36.585Z,80.80
2019-03-03T20:58:04.180Z,80.90
2019-03-03T21:00:31.660Z,81.10
2019-03-03T21:02:58.887Z,80.80
2019-03-03T21:05:26.333Z,80.70
2019-03-03T21:07:53.824Z,80.70
2019-03-03T21:10:21.655Z,80.90
2019-03-03T21:12:48.949Z,80.70
2019-03-03T21:15:16.416Z,80.80
2019-03-03T21:17:43.692Z,80.90
2019-03-03T21:20:12.757Z,80.80
2019-03-03T21:22:39.974Z,80.80
2019-03-03T21:25:07.970Z,80.70
2019-03-03T21:27:35.450Z,80.70
2019-03-03T21:30:03.920Z,80.50
2019-03-03T21:32:33.327Z,80.00
2019-03-03T21:35:00.759Z,79.70
2019-03-03T21:37:28.034Z,79.60
2019-03-03T21:39:55.346Z,79.70
2019-03-03T21:42:22.802Z,79.30
2019-03-03T21:44:50.189Z,78.60
2019-03-03T21:47:17.923Z,78.50
2019-03-03T21:49:46.541Z,78.00
2019-03-03T21:52:13.848Z,77.80
2019-03-03T21:54:41.115Z,77.60
2019-03-03T21:57:08.452Z,77.60
2019-03-03T21:59:35.839Z,77.50
2019-03-03T22:02:03.354Z,77.90
2019-03-03T22:04:32.076Z,77.30
2019-03-03T22:06:59.367Z,77.30
2019-03-03T22:09:26.925Z,77.40
2019-03-03T22:11:54.275Z,77.10
2019-03-03T22:14:21.745Z,77.00
2019-03-03T22:16:50.462Z,76.70
2019-03-03T22:19:17.806Z,76.80
2019-03-03T22:21:45.203Z,76.70
2019-03-03T22:24:12.589Z,76.60
2019-03-03T22:26:39.823Z,76.60
2019-03-03T22:29:07.213Z,75.90
2019-03-03T22:31:34.642Z,76.20
2019-03-03T22:34:01.865Z,75.90
2019-03-03T22:36:29.590Z,76.00
2019-03-03T22:38:56.940Z,76.00
2019-03-03T22:41:24.315Z,75.70
2019-03-03T22:43:51.769Z,75.30
2019-03-03T22:46:18.900Z,75.20
2019-03-03T22:48:46.199Z,75.40
2019-03-03T22:51:13.862Z,75.50
2019-03-03T22:53:41.361Z,75.40
2019-03-03T22:56:08.806Z,75.10
2019-03-03T22:58:36.204Z,75.50
2019-03-03T23:01:08.555Z,75.50
2019-03-03T23:04:19.203Z,75.40
2019-03-03T23:07:01.892Z,75.40
2019-03-03T23:10:09.718Z,75.80
2019-03-03T23:13:07.547Z,75.70
2019-03-03T23:15:52.327Z,75.90
2019-03-03T23:18:45.985Z,76.00
2019-03-03T23:22:01.151Z,76.10
2019-03-03T23:24:45.148Z,76.20
2019-03-03T23:27:12.745Z,76.50
2019-03-03T23:29:40.108Z,76.60
2019-03-03T23:32:07.421Z,76.80
2019-03-03T23:34:35.467Z,77.10
2019-03-03T23:37:02.829Z,77.00
2019-03-03T23:39:30.017Z,77.10
2019-03-03T23:41:57.410Z,77.10
2019-03-03T23:44:24.802Z,76.70
2019-03-03T23:46:52.223Z,76.70
2019-03-03T23:49:19.446Z,76.50
2019-03-03T23:51:46.825Z,76.50
2019-03-03T23:54:14.228Z,76.20
2019-03-03T23:56:41.385Z,76.30
2019-03-03T23:59:09.093Z,76.00
